createdAt,value
2023-04-22T00:00:55.003Z,97898.47
2023-04-22T00:03:23.267Z,97893.22
2023-04-22T00:05:50.811Z,97891.81
2023-04-22T00:08:18.584Z,97886.59
2023-04-22T00:10:45.971Z,97891.56
2023-04-22T00:13:13.474Z,97896.09
2023-04-22T00:15:40.787Z,97898.25
2023-04-22T00:18:14.170Z,97888.00
2023-04-22T00:20:46.127Z,97895.03
2023-04-22T00:23:13.736Z,97881.69
2023-04-22T00:25:41.406Z,97896.13
2023-04-22T00:28:09.293Z,97887.06
2023-04-22T00:30:36.866Z,97885.78
2023-04-22T00:33:04.662Z,97891.59
2023-04-22T00:35:31.965Z,97887.78
2023-04-22T00:37:59.908Z,97883.00
2023-04-22T00:40:27.369Z,97880.75
2023-04-22T00:42:55.897Z,97890.41
2023-04-22T00:45:23.210Z,97879.06
2023-04-22T00:47:51.237Z,97889.63
2023-04-22T00:50:18.792Z,97880.69
2023-04-22T00:52:46.305Z,97885.56
2023-04-22T00:55:13.765Z,97891.75
2023-04-22T00:57:41.566Z,97896.50
2023-04-22T01:00:10.453Z,97894.13
2023-04-22T01:02:41.367Z,97894.00
2023-04-22T01:05:10.320Z,97888.06
2023-04-22T01:07:38.272Z,97900.28
2023-04-22T01:10:06.650Z,97894.19
2023-04-22T01:12:34.394Z,97890.16
2023-04-22T01:15:04.684Z,97889.22
2023-04-22T01:17:33.864Z,97898.00
2023-04-22T01:20:05.525Z,97895.50
2023-04-22T01:22:41.679Z,97892.19
2023-04-22T01:25:13.128Z,97893.97
2023-04-22T01:27:41.614Z,97897.50
2023-04-22T01:30:11.054Z,97891.69
2023-04-22T01:32:40.976Z,97899.75
2023-04-22T01:35:10.273Z,97890.59
2023-04-22T01:37:38.572Z,97897.44
2023-04-22T01:40:07.916Z,97902.94
2023-04-22T01:42:36.535Z,97900.41
2023-04-22T01:45:04.738Z,97900.91
2023-04-22T01:47:32.292Z,97900.13
2023-04-22T01:49:59.706Z,97898.72
2023-04-22T01:52:27.909Z,97894.00
2023-04-22T01:54:55.755Z,97887.13
2023-04-22T01:57:23.313Z,97898.28
2023-04-22T01:59:50.619Z,97896.00
2023-04-22T02:02:18.289Z,97884.38
2023-04-22T02:04:45.628Z,97888.78
2023-04-22T02:07:13.216Z,97890.69
2023-04-22T02:09:41.121Z,97889.94
2023-04-22T02:12:09.212Z,97891.81
2023-04-22T02:14:36.492Z,97897.06
2023-04-22T02:17:04.091Z,97893.72
2023-04-22T02:19:31.360Z,97896.22
2023-04-22T02:21:59.319Z,97890.88
2023-04-22T02:24:26.945Z,97898.00
2023-04-22T02:26:54.504Z,97892.91
2023-04-22T02:29:21.794Z,97891.13
2023-04-22T02:31:49.467Z,97889.91
2023-04-22T02:34:16.893Z,97890.72
2023-04-22T02:36:44.472Z,97889.06
2023-04-22T02:39:11.778Z,97886.34
2023-04-22T02:41:39.355Z,97881.84
2023-04-22T02:44:06.726Z,97886.97
2023-04-22T02:46:34.377Z,97889.91
2023-04-22T02:49:01.710Z,97888.06
2023-04-22T02:51:29.478Z,97877.22
2023-04-22T02:53:56.778Z,97881.88
2023-04-22T02:56:24.381Z,97883.66
2023-04-22T02:58:51.644Z,97883.47
2023-04-22T03:01:19.245Z,97880.97
2023-04-22T03:03:46.785Z,97880.84
2023-04-22T03:06:14.697Z,97873.22
2023-04-22T03:08:41.935Z,97877.84
2023-04-22T03:11:09.533Z,97891.31
2023-04-22T03:13:36.804Z,97888.00
2023-04-22T03:16:04.447Z,97886.56
2023-04-22T03:18:32.032Z,97888.75
2023-04-22T03:21:03.216Z,97892.22
2023-04-22T03:23:30.625Z,97892.44
2023-04-22T03:25:58.149Z,97888.25
2023-04-22T03:28:25.572Z,97886.28
2023-04-22T03:30:53.129Z,97894.81
2023-04-22T03:33:21.092Z,97890.97
2023-04-22T03:35:51.432Z,97890.78
2023-04-22T03:38:18.742Z,97895.75
2023-04-22T03:40:46.380Z,97890.31
2023-04-22T03:43:13.796Z,97887.75
2023-04-22T03:45:41.434Z,97893.28
2023-04-22T03:48:09.038Z,97895.88
2023-04-22T03:50:36.631Z,97895.56
2023-04-22T03:53:03.877Z,97901.63
2023-04-22T03:55:31.476Z,97895.56
2023-04-22T03:57:58.985Z,97894.03
2023-04-22T04:00:26.697Z,97893.91
2023-04-22T04:02:54.214Z,97888.13
2023-04-22T04:05:22.030Z,97891.75
2023-04-22T04:07:49.322Z,97893.72
2023-04-22T04:10:17.054Z,97891.91
2023-04-22T04:12:44.331Z,97887.78
2023-04-22T04:15:12.159Z,97895.63
2023-04-22T04:17:39.923Z,97897.13
2023-04-22T04:20:08.035Z,97890.66
2023-04-22T04:22:35.360Z,97888.00
2023-04-22T04:25:03.550Z,97892.44
2023-04-22T04:27:30.825Z,97897.16
2023-04-22T04:29:58.866Z,97894.13
2023-04-22T04:32:26.165Z,97901.22
2023-04-22T04:34:54.078Z,97895.63
2023-04-22T04:37:22.495Z,97898.81
2023-04-22T04:39:50.122Z,97910.09
2023-04-22T04:42:17.499Z,97903.00
2023-04-22T04:44:45.045Z,97905.31
2023-04-22T04:47:13.224Z,97915.63
2023-04-22T04:49:41.209Z,97912.91
2023-04-22T04:52:11.462Z,97924.16
2023-04-22T04:54:39.071Z,97918.66
2023-04-22T04:57:06.977Z,97916.75
2023-04-22T04:59:38.453Z,97914.59
2023-04-22T05:02:06.125Z,97915.00
2023-04-22T05:04:33.905Z,97918.94
2023-04-22T05:07:01.723Z,97911.41
2023-04-22T05:09:29.348Z,97917.66
2023-04-22T05:11:56.697Z,97917.66
2023-04-22T05:14:24.326Z,97920.69
2023-04-22T05:16:51.904Z,97917.72
2023-04-22T05:19:19.617Z,97910.72
2023-04-22T05:21:46.904Z,97919.00
2023-04-22T05:24:14.485Z,97917.00
2023-04-22T05:26:42.161Z,97915.41
2023-04-22T05:29:09.726Z,97917.56
2023-04-22T05:31:36.998Z,97913.47
2023-04-22T05:34:04.601Z,97913.13
2023-04-22T05:36:32.178Z,97911.72
2023-04-22T05:38:59.758Z,97916.81
2023-04-22T05:41:27.047Z,97913.94
2023-04-22T05:43:54.746Z,97920.34
2023-04-22T05:46:22.185Z,97914.88
2023-04-22T05:48:49.867Z,97909.03
2023-04-22T05:51:17.255Z,97919.91
2023-04-22T05:53:44.841Z,97913.66
2023-04-22T05:56:12.113Z,97915.56
2023-04-22T05:58:39.685Z,97915.34
2023-04-22T06:01:06.953Z,97916.31
2023-04-22T06:03:34.800Z,97910.63
2023-04-22T06:06:02.188Z,97916.94
2023-04-22T06:08:31.789Z,97922.28
2023-04-22T06:10:59.146Z,97915.03
2023-04-22T06:13:27.609Z,97917.88
2023-04-22T06:15:55.049Z,97922.97
2023-04-22T06:18:22.706Z,97924.59
2023-04-22T06:20:50.500Z,97923.63
2023-04-22T06:23:18.114Z,97922.41
2023-04-22T06:25:45.555Z,97925.56
2023-04-22T06:28:13.206Z,97924.59
2023-04-22T06:30:40.560Z,97922.97
2023-04-22T06:33:08.235Z,97922.84
2023-04-22T06:35:35.702Z,97925.06
2023-04-22T06:38:03.367Z,97916.97
2023-04-22T06:40:30.789Z,97911.81
2023-04-22T06:42:58.445Z,97916.66
2023-04-22T06:45:25.836Z,97924.34
2023-04-22T06:47:56.835Z,97913.75
2023-04-22T06:50:24.170Z,97921.59
2023-04-22T06:52:51.899Z,97920.19
2023-04-22T06:55:19.259Z,97920.28
2023-04-22T06:57:47.079Z,97909.59
2023-04-22T07:00:14.896Z,97909.00
2023-04-22T07:02:42.687Z,97912.53
2023-04-22T07:05:10.120Z,97912.03
2023-04-22T07:07:37.731Z,97922.00
2023-04-22T07:10:06.258Z,97919.66
2023-04-22T07:12:33.836Z,97931.19
2023-04-22T07:15:01.117Z,97925.84
2023-04-22T07:17:28.703Z,97924.09
2023-04-22T07:19:56.062Z,97914.59
2023-04-22T07:22:23.584Z,97925.81
2023-04-22T07:24:50.962Z,97922.72
2023-04-22T07:27:18.577Z,97918.06
2023-04-22T07:29:45.866Z,97926.53
2023-04-22T07:32:13.785Z,97921.00
2023-04-22T07:34:41.929Z,97925.03
2023-04-22T07:37:10.031Z,97929.53
2023-04-22T07:39:37.561Z,97920.44
2023-04-22T07:42:05.879Z,97919.09
2023-04-22T07:44:33.100Z,97927.06
2023-04-22T07:47:00.949Z,97920.41
2023-04-22T07:49:28.385Z,97921.03
2023-04-22T07:51:56.880Z,97922.75
2023-04-22T07:54:24.155Z,97926.75
2023-04-22T07:56:51.733Z,97927.50
2023-04-22T07:59:19.009Z,97923.09
2023-04-22T08:01:46.764Z,97927.91
2023-04-22T08:04:14.283Z,97921.78
2023-04-22T08:06:42.178Z,97926.31
2023-04-22T08:09:10.670Z,97922.00
2023-04-22T08:11:38.167Z,97921.84
2023-04-22T08:14:05.473Z,97915.00
2023-04-22T08:16:34.548Z,97912.97
2023-04-22T08:19:01.855Z,97925.34
2023-04-22T08:21:29.565Z,97919.06
2023-04-22T08:23:57.283Z,97921.88
2023-04-22T08:26:24.889Z,97919.16
2023-04-22T08:28:52.248Z,97920.75
2023-04-22T08:31:19.948Z,97917.09
2023-04-22T08:33:47.297Z,97916.91
2023-04-22T08:36:15.166Z,97921.31
2023-04-22T08:38:42.490Z,97911.50
2023-04-22T08:41:10.915Z,97913.28
2023-04-22T08:43:38.715Z,97913.28
2023-04-22T08:46:06.688Z,97909.38
2023-04-22T08:48:33.984Z,97919.13
2023-04-22T08:51:01.860Z,97926.00
2023-04-22T08:53:29.614Z,97910.91
2023-04-22T08:55:58.337Z,97919.81
2023-04-22T08:58:27.304Z,97923.81
2023-04-22T09:00:56.451Z,97931.22
2023-04-22T09:03:24.480Z,97929.03
2023-04-22T09:05:53.787Z,97928.56
2023-04-22T09:08:21.922Z,97937.28
2023-04-22T09:10:50.378Z,97938.94
2023-04-22T09:13:18.318Z,97933.81
2023-04-22T09:15:46.384Z,97946.25
2023-04-22T09:18:19.137Z,97937.63
2023-04-22T09:20:56.165Z,97935.34
2023-04-22T09:23:23.541Z,97938.63
2023-04-22T09:25:51.406Z,97938.84
2023-04-22T09:28:19.672Z,97943.56
2023-04-22T09:30:48.610Z,97940.44
2023-04-22T09:33:17.829Z,97930.19
2023-04-22T09:35:46.182Z,97938.53
2023-04-22T09:38:13.840Z,97933.78
2023-04-22T09:40:45.143Z,97928.44
2023-04-22T09:43:19.893Z,97920.69
2023-04-22T09:45:47.772Z,97913.94
2023-04-22T09:48:20.007Z,97917.28
2023-04-22T09:50:52.015Z,97913.72
2023-04-22T09:53:21.932Z,97903.00
2023-04-22T09:55:55.740Z,97895.72
2023-04-22T09:58:28.033Z,97900.50
2023-04-22T10:00:59.436Z,97902.44
2023-04-22T10:03:26.835Z,97909.94
2023-04-22T10:05:54.594Z,97900.16
2023-04-22T10:08:21.973Z,97889.97
2023-04-22T10:10:49.679Z,97890.69
2023-04-22T10:13:17.191Z,97884.94
2023-04-22T10:15:55.199Z,97892.09
2023-04-22T10:18:26.422Z,97867.53
2023-04-22T10:20:56.910Z,97836.56
2023-04-22T10:23:25.626Z,97846.28
2023-04-22T10:25:57.043Z,97851.47
2023-04-22T10:28:30.849Z,97863.59
2023-04-22T10:30:58.559Z,97866.66
2023-04-22T10:33:29.093Z,97862.03
2023-04-22T10:36:16.491Z,97859.25
2023-04-22T10:38:56.482Z,97858.22
2023-04-22T10:41:32.520Z,97871.44
2023-04-22T10:44:09.710Z,97844.66
2023-04-22T10:46:58.812Z,97835.94
2023-04-22T10:49:30.393Z,97826.44
2023-04-22T10:52:00.584Z,97824.09
2023-04-22T10:54:31.570Z,97823.09
2023-04-22T10:57:07.667Z,97830.47
2023-04-22T10:59:50.516Z,97831.19
2023-04-22T11:02:20.391Z,97825.66
2023-04-22T11:04:50.028Z,97813.28
2023-04-22T11:07:26.751Z,97802.94
2023-04-22T11:10:07.866Z,97793.06
2023-04-22T11:12:38.724Z,97773.09
2023-04-22T11:15:23.190Z,97766.59
2023-04-22T11:17:55.168Z,97756.84
2023-04-22T11:20:23.058Z,97754.06
2023-04-22T11:22:56.303Z,97743.84
2023-04-22T11:25:26.123Z,97742.72
2023-04-22T11:27:55.277Z,97740.16
2023-04-22T11:30:26.551Z,97728.66
2023-04-22T11:32:59.342Z,97726.94
2023-04-22T11:35:32.733Z,97734.16
2023-04-22T11:38:03.747Z,97736.03
2023-04-22T11:40:38.344Z,97728.16
2023-04-22T11:43:09.384Z,97722.41
2023-04-22T11:45:39.349Z,97732.88
2023-04-22T11:48:10.029Z,97721.53
2023-04-22T11:50:44.282Z,97723.00
2023-04-22T11:53:24.337Z,97734.25
2023-04-22T11:55:52.960Z,97728.84
2023-04-22T11:58:27.474Z,97719.09
2023-04-22T12:00:57.825Z,97719.09
2023-04-22T12:03:31.385Z,97721.81
2023-04-22T12:06:06.478Z,97720.22
2023-04-22T12:08:45.150Z,97713.38
2023-04-22T12:11:13.596Z,97714.16
2023-04-22T12:13:43.632Z,97711.28
2023-04-22T12:16:13.748Z,97721.75
2023-04-22T12:18:50.475Z,97718.75
2023-04-22T12:21:25.574Z,97713.38
2023-04-22T12:24:05.258Z,97719.78
2023-04-22T12:26:32.801Z,97724.28
2023-04-22T12:29:01.635Z,97721.19
2023-04-22T12:31:29.236Z,97719.66
2023-04-22T12:33:57.516Z,97721.69
2023-04-22T12:36:25.373Z,97710.25
2023-04-22T12:39:12.908Z,97718.66
2023-04-22T12:41:40.155Z,97715.09
2023-04-22T12:44:08.839Z,97712.03
2023-04-22T12:46:36.410Z,97715.38
2023-04-22T12:49:04.114Z,97714.94
2023-04-22T12:51:31.984Z,97703.69
2023-04-22T12:53:59.771Z,97707.25
2023-04-22T12:56:27.121Z,97710.81
2023-04-22T12:58:54.686Z,97700.72
2023-04-22T13:01:22.025Z,97708.75
2023-04-22T13:03:53.311Z,97711.97
2023-04-22T13:06:20.827Z,97703.47
2023-04-22T13:08:48.413Z,97703.13
2023-04-22T13:11:15.734Z,97696.56
2023-04-22T13:13:43.317Z,97696.44
2023-04-22T13:16:11.215Z,97705.56
2023-04-22T13:18:38.848Z,97706.34
2023-04-22T13:21:06.480Z,97694.50
2023-04-22T13:23:37.468Z,97693.41
2023-04-22T13:26:04.922Z,97695.50
2023-04-22T13:28:33.873Z,97686.66
2023-04-22T13:31:01.975Z,97685.59
2023-04-22T13:33:29.622Z,97681.06
2023-04-22T13:35:59.266Z,97679.50
2023-04-22T13:38:26.783Z,97676.28
2023-04-22T13:40:54.116Z,97679.91
2023-04-22T13:43:22.784Z,97675.59
2023-04-22T13:45:50.191Z,97674.63
2023-04-22T13:48:17.830Z,97682.50
2023-04-22T13:50:45.141Z,97673.28
2023-04-22T13:53:14.190Z,97675.91
2023-04-22T13:55:43.362Z,97669.47
2023-04-22T13:58:11.384Z,97668.91
2023-04-22T14:00:38.736Z,97668.06
2023-04-22T14:03:06.593Z,97666.06
2023-04-22T14:05:34.061Z,97667.94
2023-04-22T14:08:01.742Z,97664.09
2023-04-22T14:10:28.994Z,97660.28
2023-04-22T14:12:56.601Z,97658.00
2023-04-22T14:15:25.481Z,97669.41
2023-04-22T14:17:54.153Z,97669.75
2023-04-22T14:20:22.087Z,97669.00
2023-04-22T14:22:49.686Z,97659.03
2023-04-22T14:25:16.974Z,97656.88
2023-04-22T14:27:44.631Z,97652.97
2023-04-22T14:30:13.231Z,97649.88
2023-04-22T14:32:40.919Z,97659.50
2023-04-22T14:35:08.543Z,97652.50
2023-04-22T14:37:36.824Z,97649.97
2023-04-22T14:40:04.886Z,97645.38
2023-04-22T14:42:32.675Z,97644.38
2023-04-22T14:45:00.246Z,97650.16
2023-04-22T14:47:29.027Z,97645.97
2023-04-22T14:49:56.412Z,97643.25
2023-04-22T14:52:24.075Z,97648.00
2023-04-22T14:54:52.189Z,97643.19
2023-04-22T14:57:19.799Z,97649.66
2023-04-22T14:59:47.471Z,97652.03
2023-04-22T15:02:16.070Z,97647.84
2023-04-22T15:04:44.855Z,97642.81
2023-04-22T15:07:12.485Z,97643.16
2023-04-22T15:09:40.278Z,97638.03
2023-04-22T15:12:08.258Z,97638.44
2023-04-22T15:14:36.714Z,97640.03
2023-04-22T15:17:05.821Z,97639.16
2023-04-22T15:19:33.490Z,97635.06
2023-04-22T15:22:01.387Z,97635.63
2023-04-22T15:24:28.974Z,97632.38
2023-04-22T15:26:58.160Z,97627.63
2023-04-22T15:29:25.828Z,97630.97
2023-04-22T15:31:54.570Z,97623.63
2023-04-22T15:34:22.428Z,97623.41
2023-04-22T15:36:50.250Z,97626.00
2023-04-22T15:39:17.701Z,97628.84
2023-04-22T15:41:45.984Z,97628.47
2023-04-22T15:44:14.762Z,97633.44
2023-04-22T15:46:42.486Z,97628.31
2023-04-22T15:49:09.958Z,97639.81
2023-04-22T15:51:37.682Z,97628.53
2023-04-22T15:54:05.108Z,97628.91
2023-04-22T15:56:34.604Z,97619.47
2023-04-22T15:59:01.924Z,97634.69
2023-04-22T16:01:29.781Z,97628.53
2023-04-22T16:03:57.613Z,97634.81
2023-04-22T16:06:25.639Z,97630.03
2023-04-22T16:08:53.070Z,97628.91
2023-04-22T16:11:20.806Z,97633.03
2023-04-22T16:13:48.295Z,97630.13
2023-04-22T16:16:16.746Z,97624.19
2023-04-22T16:18:44.586Z,97620.06
2023-04-22T16:21:12.280Z,97618.66
2023-04-22T16:23:39.584Z,97615.09
2023-04-22T16:26:07.145Z,97624.03
2023-04-22T16:28:34.392Z,97630.34
2023-04-22T16:31:02.552Z,97622.66
2023-04-22T16:33:29.982Z,97620.41
2023-04-22T16:35:57.800Z,97619.38
2023-04-22T16:38:25.200Z,97619.41
2023-04-22T16:40:54.421Z,97619.41
2023-04-22T16:43:22.118Z,97617.97
2023-04-22T16:45:49.776Z,97618.00
2023-04-22T16:48:17.304Z,97616.84
2023-04-22T16:50:44.869Z,97615.22
2023-04-22T16:53:12.356Z,97618.81
2023-04-22T16:55:40.663Z,97612.75
2023-04-22T16:58:07.969Z,97609.34
2023-04-22T17:00:36.076Z,97616.03
2023-04-22T17:03:04.058Z,97609.34
2023-04-22T17:05:33.007Z,97614.03
2023-04-22T17:08:00.501Z,97611.47
2023-04-22T17:10:29.101Z,97609.66
2023-04-22T17:12:56.552Z,97616.72
2023-04-22T17:15:24.300Z,97625.00
2023-04-22T17:17:51.767Z,97619.69
2023-04-22T17:20:19.505Z,97619.91
2023-04-22T17:22:46.894Z,97619.47
2023-04-22T17:25:14.489Z,97619.38
2023-04-22T17:27:41.818Z,97623.19
2023-04-22T17:30:09.916Z,97619.66
2023-04-22T17:32:37.257Z,97620.03
2023-04-22T17:35:05.322Z,97623.84
2023-04-22T17:37:32.643Z,97619.75
2023-04-22T17:40:00.235Z,97619.25
2023-04-22T17:42:38.826Z,97617.34
2023-04-22T17:45:13.111Z,97622.13
2023-04-22T17:47:40.437Z,97625.38
2023-04-22T17:50:08.963Z,97622.78
2023-04-22T17:52:36.442Z,97627.72
2023-04-22T17:55:04.627Z,97624.84
2023-04-22T17:57:35.079Z,97634.97
2023-04-22T18:00:03.965Z,97630.25
2023-04-22T18:02:31.726Z,97634.03
2023-04-22T18:04:59.373Z,97635.31
2023-04-22T18:07:26.639Z,97630.09
2023-04-22T18:09:54.203Z,97635.59
2023-04-22T18:12:24.214Z,97639.50
2023-04-22T18:14:51.880Z,97642.19
2023-04-22T18:17:21.739Z,97643.25
2023-04-22T18:19:50.931Z,97646.88
2023-04-22T18:22:19.484Z,97639.41
2023-04-22T18:24:47.176Z,97646.22
2023-04-22T18:27:14.486Z,97648.75
2023-04-22T18:29:42.612Z,97654.56
2023-04-22T18:32:11.415Z,97646.94
2023-04-22T18:34:39.749Z,97655.41
2023-04-22T18:37:07.423Z,97660.94
2023-04-22T18:39:34.956Z,97664.00
2023-04-22T18:42:02.750Z,97661.91
2023-04-22T18:44:30.598Z,97661.78
2023-04-22T18:46:58.495Z,97668.41
2023-04-22T18:49:26.461Z,97674.50
2023-04-22T18:51:53.823Z,97674.50
2023-04-22T18:54:30.678Z,97668.88
2023-04-22T18:56:58.340Z,97675.47
2023-04-22T18:59:26.172Z,97675.94
2023-04-22T19:01:53.600Z,97678.06
2023-04-22T19:04:21.501Z,97671.59
2023-04-22T19:06:50.720Z,97670.94
2023-04-22T19:09:18.306Z,97677.38
2023-04-22T19:11:46.172Z,97674.38
2023-04-22T19:14:14.604Z,97668.19
2023-04-22T19:16:43.136Z,97672.81
2023-04-22T19:19:12.014Z,97678.59
2023-04-22T19:21:39.799Z,97682.03
2023-04-22T19:24:07.942Z,97668.00
2023-04-22T19:26:35.779Z,97672.28
2023-04-22T19:29:03.460Z,97665.88
2023-04-22T19:31:31.649Z,97672.28
2023-04-22T19:33:59.533Z,97675.91
2023-04-22T19:36:27.101Z,97670.78
2023-04-22T19:38:54.721Z,97671.09
2023-04-22T19:41:22.386Z,97664.63
2023-04-22T19:43:49.942Z,97665.63
2023-04-22T19:46:17.292Z,97667.09
2023-04-22T19:48:45.279Z,97670.03
2023-04-22T19:51:12.834Z,97677.44
2023-04-22T19:53:41.555Z,97669.97
2023-04-22T19:56:09.656Z,97660.91
2023-04-22T19:58:38.968Z,97659.19
2023-04-22T20:01:06.624Z,97661.63
2023-04-22T20:03:35.329Z,97662.28
2023-04-22T20:06:03.850Z,97663.06
2023-04-22T20:08:31.941Z,97661.72
2023-04-22T20:11:00.723Z,97658.53
2023-04-22T20:13:28.667Z,97658.72
2023-04-22T20:15:56.300Z,97656.25
2023-04-22T20:18:24.227Z,97650.91
2023-04-22T20:20:57.347Z,97659.59
2023-04-22T20:23:27.930Z,97659.75
2023-04-22T20:25:58.906Z,97655.59
2023-04-22T20:28:46.060Z,97655.00
2023-04-22T20:31:16.707Z,97648.44
2023-04-22T20:33:45.006Z,97652.22
2023-04-22T20:36:16.861Z,97652.16
2023-04-22T20:38:48.813Z,97658.41
2023-04-22T20:41:20.224Z,97646.22
2023-04-22T20:43:47.928Z,97656.97
2023-04-22T20:46:15.215Z,97648.16
2023-04-22T20:48:42.895Z,97644.69
2023-04-22T20:51:10.209Z,97653.72
2023-04-22T20:53:38.238Z,97647.19
2023-04-22T20:56:06.116Z,97650.19
2023-04-22T20:58:33.686Z,97645.16
2023-04-22T21:01:01.191Z,97644.69
2023-04-22T21:03:29.933Z,97646.97
2023-04-22T21:05:58.508Z,97636.19
2023-04-22T21:08:27.241Z,97641.47
2023-04-22T21:10:56.781Z,97646.38
2023-04-22T21:13:24.712Z,97638.75
2023-04-22T21:16:08.309Z,97641.69
2023-04-22T21:18:40.815Z,97637.41
2023-04-22T21:21:10.099Z,97646.56
2023-04-22T21:23:40.368Z,97638.28
2023-04-22T21:26:10.550Z,97644.53
2023-04-22T21:28:39.242Z,97653.44
2023-04-22T21:31:07.404Z,97645.56
2023-04-22T21:33:35.015Z,97649.16
2023-04-22T21:36:02.465Z,97651.94
2023-04-22T21:38:30.125Z,97649.84
2023-04-22T21:40:57.453Z,97655.09
2023-04-22T21:43:24.925Z,97653.75
2023-04-22T21:45:52.157Z,97653.59
2023-04-22T21:48:19.701Z,97652.81
2023-04-22T21:50:47.035Z,97655.88
2023-04-22T21:53:14.770Z,97655.59
2023-04-22T21:55:42.148Z,97650.03
2023-04-22T21:58:09.741Z,97647.72
2023-04-22T22:00:37.986Z,97652.19
2023-04-22T22:03:06.483Z,97646.25
2023-04-22T22:05:33.909Z,97650.25
2023-04-22T22:08:01.941Z,97660.66
2023-04-22T22:10:29.501Z,97646.81
2023-04-22T22:12:57.113Z,97643.53
2023-04-22T22:15:24.512Z,97638.53
2023-04-22T22:17:52.249Z,97648.25
2023-04-22T22:20:22.591Z,97648.13
2023-04-22T22:22:50.258Z,97644.50
2023-04-22T22:25:18.408Z,97648.22
2023-04-22T22:27:47.171Z,97638.53
2023-04-22T22:30:17.044Z,97646.31
2023-04-22T22:32:45.471Z,97641.66
2023-04-22T22:35:13.217Z,97643.97
2023-04-22T22:37:41.853Z,97639.69
2023-04-22T22:40:10.241Z,97645.00
2023-04-22T22:42:37.840Z,97651.44
2023-04-22T22:45:05.754Z,97648.97
2023-04-22T22:47:33.536Z,97643.56
2023-04-22T22:50:00.880Z,97647.47
2023-04-22T22:52:28.731Z,97647.91
2023-04-22T22:54:56.020Z,97652.91
2023-04-22T22:57:23.563Z,97643.63
2023-04-22T22:59:50.869Z,97648.06
2023-04-22T23:02:18.631Z,97647.91
2023-04-22T23:04:46.328Z,97652.22
2023-04-22T23:07:14.832Z,97653.31
2023-04-22T23:09:42.373Z,97651.69
2023-04-22T23:12:09.918Z,97650.00
2023-04-22T23:14:37.161Z,97646.41
2023-04-22T23:17:04.854Z,97643.09
2023-04-22T23:19:33.785Z,97646.00
2023-04-22T23:22:02.369Z,97653.34
2023-04-22T23:24:30.006Z,97655.84
2023-04-22T23:26:57.876Z,97659.16
2023-04-22T23:29:25.497Z,97659.44
2023-04-22T23:31:53.514Z,97660.56
2023-04-22T23:34:25.878Z,97661.78
2023-04-22T23:36:57.118Z,97656.94
2023-04-22T23:39:24.665Z,97652.25
2023-04-22T23:41:52.135Z,97645.34
2023-04-22T23:44:19.464Z,97652.25
2023-04-22T23:46:48.143Z,97664.41
2023-04-22T23:49:15.951Z,97646.84
2023-04-22T23:51:43.904Z,97655.16
2023-04-22T23:54:11.185Z,97650.28
2023-04-22T23:56:39.237Z,97637.47
2023-04-22T23:59:07.280Z,97642.84
